Accueil
METAR-TAF:

METAR-TAF

Aéroports :

Aéroport international de Kotoka

Accra, Ghana

latitude: 05-36N, longitude: 000-10W, altitude: 68 m

Observation

Le bulletin a été fait il y a 38 minutes, à 07:00 UTC
Vent 7 kt de ouest
Température 26°C
Humidité 94%
Pression 1012 hPa
Visibilité: 5000 m
brume

METAR: DGAA 230700Z 27007KT 5000 BR NSC 26/25 Q1012 NOSIG

Heure: 07:38 (07:38 UTC)

Prévision

Le bulletin a été fait il y a 2 heures et 38 minutes, à 05:00 UTC
Prévision valable du 23 à 06 UTC au 24 à 12 UTC
Vent 10 kt de ouest
Visibilité: 3000 m
Nuages épars à une hauteur de 1000 ft
brume
Evoluant progressivement
du 23 à 11 UTC au 23 à 13 UTC
Vent 15 kt de sud
Quelques nuages à une hauteur de 2500 ft
Evoluant progressivement
du 23 à 20 UTC au 23 à 22 UTC
Visibilité 10 km ou plus
pas de nuages en-dessous de 1500 mètres et pas de cumulonimbus.

TAF: DGAA 230500Z 2306/2412 27010KT 3000 BR SCT010 BECMG 2311/2313 18015KT FEW025 BECMG 2320/2322 CAVOK

Observations et prévisions météorologiques de plus de 4000 aéroports (messages METAR et TAF).

Les stations disponibles sont représentées par des disques jaunes et rouges sur la carte.

Passer la souris dessus pour voir le nom de la station.

Cliquer dessus pour voir les observations et prévisions météorologiques.

Pour changer de carte: cliquez sur les boutons verts avec une croix noire pour zoomer, sur le bouton vert avec un tiret pour effectuer un zoom arrière, ou sur les flèches vertes pour les cartes adjacentes.


METAR-TAF: